createdAt,value
2019-01-26T00:00:26.713Z,20.57
2019-01-26T00:02:56.240Z,17.77
2019-01-26T00:05:25.702Z,13.93
2019-01-26T00:07:55.167Z,16.93
2019-01-26T00:10:24.758Z,16.02
2019-01-26T00:12:54.213Z,20.15
2019-01-26T00:15:23.749Z,13.43
2019-01-26T00:17:53.243Z,19.73
2019-01-26T00:20:22.984Z,23.73
2019-01-26T00:22:52.483Z,38.88
2019-01-26T00:25:22.419Z,36.65
2019-01-26T00:27:51.930Z,26.90
2019-01-26T00:30:21.566Z,24.75
2019-01-26T00:32:51.111Z,31.97
2019-01-26T00:35:20.607Z,20.75
2019-01-26T00:37:50.078Z,23.67
2019-01-26T00:40:19.826Z,20.02
2019-01-26T00:42:49.361Z,31.97
2019-01-26T00:45:18.817Z,29.02
2019-01-26T00:47:48.344Z,24.85
2019-01-26T00:50:17.918Z,33.50
2019-01-26T00:52:47.411Z,25.52
2019-01-26T00:55:17.225Z,37.30
2019-01-26T00:57:46.701Z,34.33
2019-01-26T01:00:17.444Z,55.12
2019-01-26T01:02:47.082Z,53.10
2019-01-26T01:05:17.295Z,101.92
2019-01-26T01:07:47.024Z,32.50
2019-01-26T01:10:17.056Z,122.15
2019-01-26T01:12:46.635Z,32.33
2019-01-26T01:15:16.541Z,40.88
2019-01-26T01:17:46.066Z,42.88
2019-01-26T01:20:16.020Z,83.90
2019-01-26T01:22:45.515Z,39.55
2019-01-26T01:25:15.519Z,20.27
2019-01-26T01:27:45.163Z,16.02
2019-01-26T01:30:17.318Z,45.63
2019-01-26T01:32:46.806Z,54.10
2019-01-26T01:35:16.410Z,90.22
2019-01-26T01:37:45.879Z,71.95
2019-01-26T01:40:15.710Z,46.45
2019-01-26T01:42:45.216Z,39.65
2019-01-26T01:45:17.440Z,31.85
2019-01-26T01:47:46.923Z,63.20
2019-01-26T01:50:17.007Z,42.95
2019-01-26T01:52:46.469Z,43.92
2019-01-26T01:55:16.176Z,61.58
2019-01-26T01:57:45.845Z,37.63
2019-01-26T02:00:18.046Z,28.38
2019-01-26T02:02:47.636Z,39.38
2019-01-26T02:05:17.516Z,16.60
2019-01-26T02:07:47.124Z,49.20
2019-01-26T02:10:19.026Z,27.75
2019-01-26T02:12:48.824Z,47.45
2019-01-26T02:15:18.485Z,22.95
2019-01-26T02:17:47.979Z,63.98
2019-01-26T02:20:19.986Z,74.20
2019-01-26T02:22:49.527Z,35.05
2019-01-26T02:25:19.503Z,52.65
2019-01-26T02:27:48.937Z,18.17
2019-01-26T02:30:23.604Z,41.15
2019-01-26T02:32:54.604Z,27.05
2019-01-26T02:35:24.310Z,27.65
2019-01-26T02:37:53.795Z,26.05
2019-01-26T02:40:23.557Z,71.60
2019-01-26T02:42:53.045Z,25.17
2019-01-26T02:45:22.552Z,65.92
2019-01-26T02:47:52.047Z,37.15
2019-01-26T02:50:21.535Z,22.20
2019-01-26T02:52:51.002Z,28.05
2019-01-26T02:55:20.458Z,49.35
2019-01-26T02:57:49.958Z,30.00
2019-01-26T03:00:23.986Z,58.63
2019-01-26T03:02:53.639Z,23.07
2019-01-26T03:05:23.135Z,51.65
2019-01-26T03:07:52.585Z,24.75
2019-01-26T03:10:24.372Z,49.85
2019-01-26T03:12:53.831Z,53.92
2019-01-26T03:15:24.705Z,63.58
2019-01-26T03:17:54.673Z,24.27
2019-01-26T03:20:24.327Z,23.95
2019-01-26T03:22:54.169Z,37.55
2019-01-26T03:25:23.651Z,45.15
2019-01-26T03:27:53.110Z,19.40
2019-01-26T03:30:24.985Z,38.30
2019-01-26T03:32:54.456Z,26.73
2019-01-26T03:35:23.970Z,18.52
2019-01-26T03:37:53.627Z,20.08
2019-01-26T03:40:24.115Z,15.60
2019-01-26T03:42:53.558Z,18.92
2019-01-26T03:45:23.077Z,17.35
2019-01-26T03:47:52.551Z,16.05
2019-01-26T03:50:22.008Z,17.80
2019-01-26T03:52:51.493Z,23.25
2019-01-26T03:55:21.778Z,15.70
2019-01-26T03:57:51.702Z,20.55
2019-01-26T04:00:23.584Z,15.32
2019-01-26T04:02:53.171Z,28.70
2019-01-26T04:05:22.886Z,18.87
2019-01-26T04:07:52.445Z,14.15
2019-01-26T04:10:22.145Z,20.57
2019-01-26T04:12:51.926Z,17.00
2019-01-26T04:15:21.690Z,20.10
2019-01-26T04:17:51.174Z,20.60
2019-01-26T04:20:22.390Z,19.65
2019-01-26T04:22:52.041Z,17.87
2019-01-26T04:25:21.722Z,16.85
2019-01-26T04:27:51.219Z,18.27
2019-01-26T04:30:22.788Z,15.70
2019-01-26T04:32:52.769Z,14.73
2019-01-26T04:35:22.245Z,11.85
2019-01-26T04:37:51.787Z,12.75
2019-01-26T04:40:21.630Z,17.17
2019-01-26T04:42:51.118Z,15.80
2019-01-26T04:45:22.619Z,14.70
2019-01-26T04:47:52.123Z,14.05
2019-01-26T04:50:22.093Z,12.33
2019-01-26T04:52:51.565Z,8.70
2019-01-26T04:55:22.067Z,15.53
2019-01-26T04:57:51.781Z,10.30
2019-01-26T05:00:23.927Z,12.68
2019-01-26T05:02:53.398Z,11.10
2019-01-26T05:05:23.234Z,14.43
2019-01-26T05:07:52.800Z,10.63
2019-01-26T05:10:22.463Z,10.78
2019-01-26T05:12:52.062Z,10.50
2019-01-26T05:15:22.148Z,14.43
2019-01-26T05:17:51.700Z,12.85
2019-01-26T05:20:25.707Z,9.08
2019-01-26T05:22:55.178Z,11.50
2019-01-26T05:25:24.746Z,10.13
2019-01-26T05:27:54.254Z,9.98
2019-01-26T05:30:28.884Z,16.65
2019-01-26T05:32:58.687Z,10.63
2019-01-26T05:35:28.245Z,12.28
2019-01-26T05:37:57.715Z,9.48
2019-01-26T05:40:27.241Z,12.20
2019-01-26T05:42:56.767Z,10.45
2019-01-26T05:45:26.494Z,6.97
2019-01-26T05:47:55.990Z,14.07
2019-01-26T05:50:26.835Z,11.73
2019-01-26T05:52:56.699Z,12.25
2019-01-26T05:55:26.162Z,18.37
2019-01-26T05:57:55.709Z,9.25
2019-01-26T06:00:35.043Z,12.95
2019-01-26T06:03:04.826Z,6.40
2019-01-26T06:05:34.450Z,13.50
2019-01-26T06:08:04.900Z,11.40
2019-01-26T06:10:34.401Z,11.33
2019-01-26T06:13:03.912Z,10.72
2019-01-26T06:15:33.488Z,9.53
2019-01-26T06:18:03.102Z,7.90
2019-01-26T06:20:32.569Z,12.18
2019-01-26T06:23:02.023Z,9.18
2019-01-26T06:25:31.507Z,10.88
2019-01-26T06:28:00.995Z,26.62
2019-01-26T06:30:30.566Z,10.70
2019-01-26T06:33:00.129Z,11.28
2019-01-26T06:35:29.703Z,15.83
2019-01-26T06:37:59.190Z,12.00
2019-01-26T06:40:28.673Z,9.13
2019-01-26T06:42:58.150Z,15.83
2019-01-26T06:45:27.670Z,13.25
2019-01-26T06:48:02.054Z,9.43
2019-01-26T06:50:29.391Z,21.82
2019-01-26T06:52:58.935Z,12.23
2019-01-26T06:55:28.375Z,28.17
2019-01-26T06:57:57.897Z,11.35
2019-01-26T07:00:32.024Z,17.62
2019-01-26T07:03:01.750Z,9.28
2019-01-26T07:05:59.104Z,9.98
2019-01-26T07:08:28.591Z,12.23
2019-01-26T07:10:58.060Z,13.48
2019-01-26T07:13:27.863Z,10.82
2019-01-26T07:15:59.642Z,11.50
2019-01-26T07:18:29.260Z,10.28
2019-01-26T07:20:58.789Z,11.35
2019-01-26T07:23:28.583Z,7.33
2019-01-26T07:25:58.403Z,24.05
2019-01-26T07:28:27.865Z,7.90
2019-01-26T07:30:57.467Z,11.00
2019-01-26T07:33:26.935Z,8.75
2019-01-26T07:35:56.442Z,20.43
2019-01-26T07:38:25.972Z,10.58
2019-01-26T07:40:55.575Z,9.65
2019-01-26T07:43:25.022Z,12.07
2019-01-26T07:45:54.499Z,17.17
2019-01-26T07:48:23.998Z,10.65
2019-01-26T07:50:53.621Z,15.58
2019-01-26T07:53:23.128Z,11.73
2019-01-26T07:55:52.595Z,18.07
2019-01-26T07:58:22.262Z,10.50
2019-01-26T08:00:51.739Z,13.40
2019-01-26T08:03:21.222Z,12.28
2019-01-26T08:05:50.733Z,9.80
2019-01-26T08:08:20.193Z,19.15
2019-01-26T08:10:49.740Z,14.18
2019-01-26T08:13:19.764Z,9.43
2019-01-26T08:15:49.586Z,11.43
2019-01-26T08:18:23.979Z,10.18
2019-01-26T08:20:50.287Z,12.90
2019-01-26T08:23:19.849Z,8.35
2019-01-26T08:25:49.334Z,8.55
2019-01-26T08:28:18.857Z,11.93
2019-01-26T08:30:48.334Z,12.33
2019-01-26T08:33:17.954Z,12.20
2019-01-26T08:35:47.466Z,10.58
2019-01-26T08:38:16.981Z,11.30
2019-01-26T08:40:46.461Z,9.25
2019-01-26T08:43:16.046Z,10.68
2019-01-26T08:45:45.626Z,14.35
2019-01-26T08:48:15.129Z,10.40
2019-01-26T08:50:44.609Z,10.65
2019-01-26T08:53:14.127Z,12.07
2019-01-26T08:55:43.584Z,10.75
2019-01-26T08:58:13.139Z,12.05
2019-01-26T09:00:42.671Z,14.80
2019-01-26T09:03:29.723Z,9.05
2019-01-26T09:06:05.249Z,12.28
2019-01-26T09:08:34.975Z,10.23
2019-01-26T09:11:04.794Z,11.22
2019-01-26T09:13:34.156Z,12.33
2019-01-26T09:16:03.746Z,12.28
2019-01-26T09:18:38.706Z,11.60
2019-01-26T09:21:04.630Z,9.13
2019-01-26T09:23:34.100Z,10.85
2019-01-26T09:26:03.705Z,11.53
2019-01-26T09:28:33.189Z,8.45
2019-01-26T09:31:02.645Z,22.57
2019-01-26T09:33:32.207Z,12.05
2019-01-26T09:36:01.710Z,9.15
2019-01-26T09:38:31.249Z,15.88
2019-01-26T09:41:00.823Z,15.18
2019-01-26T09:43:30.317Z,9.93
2019-01-26T09:45:59.895Z,10.53
2019-01-26T09:48:29.437Z,13.10
2019-01-26T09:50:58.924Z,8.77
2019-01-26T09:53:28.390Z,9.70
2019-01-26T09:55:57.966Z,7.17
2019-01-26T09:58:27.439Z,12.58
2019-01-26T10:00:56.874Z,6.87
2019-01-26T10:03:26.353Z,19.37
2019-01-26T10:05:55.790Z,14.50
2019-01-26T10:08:25.277Z,8.45
2019-01-26T10:10:55.377Z,12.50
2019-01-26T10:13:25.092Z,9.20
2019-01-26T10:15:54.563Z,7.22
2019-01-26T10:18:24.177Z,6.78
2019-01-26T10:20:53.647Z,11.65
2019-01-26T10:23:23.258Z,8.68
2019-01-26T10:25:52.716Z,11.23
2019-01-26T10:28:22.365Z,10.40
2019-01-26T10:31:02.799Z,7.67
2019-01-26T10:33:32.225Z,11.03
2019-01-26T10:36:21.065Z,14.00
2019-01-26T10:39:00.584Z,10.03
2019-01-26T10:41:52.046Z,9.20
2019-01-26T10:44:25.426Z,13.68
2019-01-26T10:46:54.888Z,8.13
2019-01-26T10:49:24.260Z,8.00
2019-01-26T10:51:53.691Z,7.53
2019-01-26T10:54:23.174Z,15.32
2019-01-26T10:56:52.586Z,15.10
2019-01-26T10:59:22.045Z,9.23
2019-01-26T11:01:51.459Z,8.17
2019-01-26T11:04:21.032Z,9.77
2019-01-26T11:06:50.582Z,13.43
2019-01-26T11:09:20.028Z,8.53
2019-01-26T11:11:49.393Z,19.43
2019-01-26T11:14:18.794Z,14.70
2019-01-26T11:16:48.239Z,9.00
2019-01-26T11:19:17.655Z,13.37
2019-01-26T11:21:47.049Z,6.93
2019-01-26T11:24:16.483Z,7.80
2019-01-26T11:26:49.388Z,19.90
2019-01-26T11:29:17.053Z,16.37
2019-01-26T11:31:46.548Z,12.80
2019-01-26T11:34:15.929Z,7.87
2019-01-26T11:36:45.558Z,17.90
2019-01-26T11:39:15.019Z,11.97
2019-01-26T11:41:44.497Z,9.33
2019-01-26T11:44:13.884Z,12.93
2019-01-26T11:47:00.295Z,9.07
2019-01-26T11:49:29.758Z,10.50
2019-01-26T11:52:09.736Z,8.63
2019-01-26T11:54:57.731Z,7.90
2019-01-26T11:57:29.829Z,6.90
2019-01-26T12:00:30.181Z,14.23
2019-01-26T12:03:18.657Z,10.03
2019-01-26T12:06:01.096Z,6.50
2019-01-26T12:08:30.633Z,22.30
2019-01-26T12:11:00.027Z,9.13
2019-01-26T12:13:29.447Z,13.23
2019-01-26T12:15:58.833Z,8.90
2019-01-26T12:18:28.248Z,10.73
2019-01-26T12:20:57.659Z,7.50
2019-01-26T12:23:27.050Z,8.93
2019-01-26T12:25:56.568Z,9.60
2019-01-26T12:28:25.930Z,8.13
2019-01-26T12:30:55.370Z,6.43
2019-01-26T12:33:24.985Z,20.17
2019-01-26T12:35:54.536Z,7.60
2019-01-26T12:38:23.930Z,9.30
2019-01-26T12:40:53.491Z,7.07
2019-01-26T12:43:22.983Z,12.77
2019-01-26T12:45:52.414Z,11.73
2019-01-26T12:48:22.145Z,8.73
2019-01-26T12:50:51.588Z,5.53
2019-01-26T12:53:20.991Z,8.37
2019-01-26T12:55:50.488Z,8.83
2019-01-26T12:58:19.920Z,18.67
2019-01-26T13:00:49.314Z,6.30
2019-01-26T13:03:18.812Z,35.03
2019-01-26T13:05:48.426Z,7.90
2019-01-26T13:08:18.143Z,12.50
2019-01-26T13:10:50.542Z,6.57
2019-01-26T13:13:19.934Z,6.43
2019-01-26T13:15:49.460Z,7.07
2019-01-26T13:18:19.073Z,6.67
2019-01-26T13:20:48.503Z,5.43
2019-01-26T13:23:17.927Z,6.13
2019-01-26T13:25:47.450Z,14.87
2019-01-26T13:28:16.882Z,8.63
2019-01-26T13:30:46.312Z,11.20
2019-01-26T13:33:15.957Z,10.63
2019-01-26T13:35:45.357Z,9.03
2019-01-26T13:38:14.845Z,9.33
2019-01-26T13:40:44.790Z,10.43
2019-01-26T13:43:14.934Z,7.80
2019-01-26T13:45:44.372Z,6.17
2019-01-26T13:48:13.836Z,4.83
2019-01-26T13:50:43.234Z,5.77
2019-01-26T13:53:12.757Z,5.87
2019-01-26T13:55:42.147Z,10.97
2019-01-26T13:58:11.563Z,7.77
2019-01-26T14:00:41.226Z,3.97
2019-01-26T14:03:11.178Z,7.80
2019-01-26T14:05:40.575Z,10.33
2019-01-26T14:08:10.070Z,5.07
2019-01-26T14:10:39.617Z,8.73
2019-01-26T14:13:09.105Z,8.40
2019-01-26T14:15:38.624Z,7.97
2019-01-26T14:18:08.031Z,9.50
2019-01-26T14:20:37.697Z,6.03
2019-01-26T14:23:07.101Z,4.10
2019-01-26T14:25:36.476Z,9.37
2019-01-26T14:28:06.313Z,5.70
2019-01-26T14:30:38.580Z,11.80
2019-01-26T14:33:08.230Z,5.23
2019-01-26T14:35:37.661Z,22.37
2019-01-26T14:38:07.777Z,4.53
2019-01-26T14:40:37.254Z,4.93
2019-01-26T14:43:06.968Z,5.63
2019-01-26T14:45:36.433Z,3.33
2019-01-26T14:48:05.926Z,5.20
2019-01-26T14:50:35.544Z,6.13
2019-01-26T14:53:05.170Z,7.93
2019-01-26T14:55:34.639Z,5.60
2019-01-26T14:58:04.230Z,5.87
2019-01-26T15:00:34.615Z,4.83
2019-01-26T15:03:04.283Z,13.97
2019-01-26T15:05:34.188Z,8.00
2019-01-26T15:08:03.995Z,24.57
2019-01-26T15:10:33.542Z,9.73
2019-01-26T15:13:03.078Z,6.47
2019-01-26T15:15:32.557Z,9.73
2019-01-26T15:18:02.309Z,7.07
2019-01-26T15:20:34.351Z,18.20
2019-01-26T15:23:04.424Z,4.87
2019-01-26T15:25:33.797Z,4.40
2019-01-26T15:28:03.471Z,4.23
2019-01-26T15:30:37.180Z,6.67
2019-01-26T15:33:07.981Z,7.17
2019-01-26T15:35:37.424Z,6.17
2019-01-26T15:38:08.229Z,3.23
2019-01-26T15:40:38.060Z,7.20
2019-01-26T15:43:07.440Z,4.10
2019-01-26T15:45:44.962Z,7.23
2019-01-26T15:48:14.360Z,7.43
2019-01-26T15:50:44.068Z,11.90
2019-01-26T15:53:13.931Z,4.37
2019-01-26T15:55:43.544Z,9.43
2019-01-26T15:58:12.978Z,10.93
2019-01-26T16:00:44.859Z,6.07
2019-01-26T16:03:14.905Z,6.50
2019-01-26T16:05:44.303Z,5.60
2019-01-26T16:08:13.806Z,6.00
2019-01-26T16:10:43.200Z,5.37
2019-01-26T16:13:12.582Z,7.03
2019-01-26T16:15:42.000Z,7.80
2019-01-26T16:18:13.738Z,6.27
2019-01-26T16:20:43.362Z,6.97
2019-01-26T16:23:12.752Z,7.40
2019-01-26T16:25:42.161Z,7.87
2019-01-26T16:28:11.563Z,6.50
2019-01-26T16:30:40.967Z,8.17
2019-01-26T16:33:10.400Z,8.70
2019-01-26T16:35:39.762Z,8.03
2019-01-26T16:38:09.240Z,13.60
2019-01-26T16:40:38.636Z,8.17
2019-01-26T16:43:08.126Z,10.00
2019-01-26T16:45:39.427Z,13.73
2019-01-26T16:48:11.856Z,14.40
2019-01-26T16:50:41.245Z,12.50
2019-01-26T16:53:10.820Z,11.37
2019-01-26T16:55:40.274Z,9.07
2019-01-26T16:58:09.934Z,12.40
2019-01-26T17:00:41.712Z,7.57
2019-01-26T17:03:11.209Z,10.57
2019-01-26T17:05:40.707Z,6.47
2019-01-26T17:08:11.157Z,9.53
2019-01-26T17:10:42.268Z,9.97
2019-01-26T17:13:12.308Z,7.23
2019-01-26T17:15:41.929Z,8.80
2019-01-26T17:18:13.802Z,9.23
2019-01-26T17:20:43.587Z,9.83
2019-01-26T17:23:13.062Z,11.50
2019-01-26T17:25:42.459Z,7.90
2019-01-26T17:28:11.831Z,8.17
2019-01-26T17:30:42.559Z,7.57
2019-01-26T17:33:11.921Z,8.30
2019-01-26T17:35:41.432Z,8.37
2019-01-26T17:38:10.986Z,12.10
2019-01-26T17:40:40.413Z,10.47
2019-01-26T17:43:10.369Z,7.80
2019-01-26T17:45:39.778Z,6.83
2019-01-26T17:48:09.779Z,7.10
2019-01-26T17:50:42.266Z,8.20
2019-01-26T17:53:10.321Z,8.27
2019-01-26T17:55:39.788Z,8.37
2019-01-26T17:58:09.202Z,11.70
2019-01-26T18:00:49.245Z,7.83
2019-01-26T18:03:18.818Z,7.90
2019-01-26T18:05:48.386Z,7.47
2019-01-26T18:08:17.801Z,7.87
2019-01-26T18:10:47.397Z,8.53
2019-01-26T18:13:16.860Z,7.97
2019-01-26T18:15:46.246Z,11.03
2019-01-26T18:18:16.242Z,12.10
2019-01-26T18:20:49.368Z,6.33
2019-01-26T18:23:21.146Z,7.90
2019-01-26T18:25:50.576Z,8.53
2019-01-26T18:28:19.986Z,9.03
2019-01-26T18:30:49.411Z,10.10
2019-01-26T18:33:19.226Z,13.10
2019-01-26T18:35:48.625Z,7.67
2019-01-26T18:38:18.212Z,14.50
2019-01-26T18:40:47.627Z,11.23
2019-01-26T18:43:17.027Z,12.77
2019-01-26T18:45:46.426Z,8.17
2019-01-26T18:48:16.051Z,10.50
2019-01-26T18:50:47.925Z,8.13
2019-01-26T18:53:17.485Z,10.80
2019-01-26T18:55:46.913Z,8.33
2019-01-26T18:58:17.041Z,8.97
2019-01-26T19:00:49.424Z,12.70
2019-01-26T19:03:32.347Z,8.43
2019-01-26T19:06:01.761Z,9.27
2019-01-26T19:08:31.192Z,14.33
2019-01-26T19:11:00.674Z,11.37
2019-01-26T19:13:30.122Z,12.43
2019-01-26T19:15:59.752Z,8.10
2019-01-26T19:18:31.253Z,7.60
2019-01-26T19:21:03.372Z,9.20
2019-01-26T19:23:31.808Z,9.30
2019-01-26T19:26:01.299Z,9.30
2019-01-26T19:28:30.867Z,12.10
2019-01-26T19:31:00.336Z,9.10
2019-01-26T19:33:29.834Z,13.00
2019-01-26T19:35:59.438Z,8.23
2019-01-26T19:38:28.896Z,8.57
2019-01-26T19:40:58.489Z,9.23
2019-01-26T19:43:27.946Z,7.10
2019-01-26T19:45:57.375Z,14.03
2019-01-26T19:48:26.835Z,6.00
2019-01-26T19:50:56.483Z,10.87
2019-01-26T19:53:25.969Z,12.17
2019-01-26T19:55:55.345Z,8.73
2019-01-26T19:58:25.000Z,8.23
2019-01-26T20:00:54.412Z,7.70
2019-01-26T20:03:23.922Z,10.93
2019-01-26T20:05:53.316Z,6.70
2019-01-26T20:08:23.486Z,11.03
2019-01-26T20:10:52.921Z,11.90
2019-01-26T20:13:22.365Z,15.30
2019-01-26T20:15:51.865Z,9.93
2019-01-26T20:18:21.352Z,11.00
2019-01-26T20:20:50.773Z,17.00
2019-01-26T20:23:20.203Z,17.40
2019-01-26T20:25:49.635Z,11.97
2019-01-26T20:28:19.059Z,8.73
2019-01-26T20:30:48.698Z,12.90
2019-01-26T20:33:18.275Z,11.70
2019-01-26T20:35:47.734Z,5.70
2019-01-26T20:38:17.338Z,8.20
2019-01-26T20:40:46.833Z,15.33
2019-01-26T20:43:16.240Z,14.33
2019-01-26T20:45:45.844Z,9.60
2019-01-26T20:48:15.602Z,8.70
2019-01-26T20:50:45.082Z,12.23
2019-01-26T20:53:14.497Z,11.93
2019-01-26T20:55:44.031Z,19.70
2019-01-26T20:58:13.371Z,9.83
2019-01-26T21:00:42.806Z,14.67
2019-01-26T21:03:12.379Z,13.70
2019-01-26T21:05:41.799Z,50.20
2019-01-26T21:08:11.337Z,24.30
2019-01-26T21:10:40.749Z,17.73
2019-01-26T21:13:16.216Z,16.40
2019-01-26T21:15:41.725Z,10.10
2019-01-26T21:18:11.126Z,11.53
2019-01-26T21:20:40.490Z,21.13
2019-01-26T21:23:09.961Z,15.87
2019-01-26T21:25:39.392Z,16.03
2019-01-26T21:28:08.843Z,10.70
2019-01-26T21:30:38.241Z,11.97
2019-01-26T21:33:07.707Z,19.13
2019-01-26T21:35:37.063Z,36.70
2019-01-26T21:38:06.467Z,12.70
2019-01-26T21:40:35.866Z,15.07
2019-01-26T21:43:05.246Z,14.13
2019-01-26T21:45:35.028Z,21.13
2019-01-26T21:48:04.616Z,17.27
2019-01-26T21:50:34.125Z,49.63
2019-01-26T21:53:03.704Z,50.30
2019-01-26T21:55:33.328Z,28.83
2019-01-26T21:58:02.837Z,51.70
2019-01-26T22:00:33.818Z,24.43
2019-01-26T22:03:03.723Z,28.83
2019-01-26T22:05:33.140Z,34.30
2019-01-26T22:08:02.547Z,36.13
2019-01-26T22:10:31.941Z,21.40
2019-01-26T22:13:01.368Z,32.87
2019-01-26T22:15:30.860Z,28.32
2019-01-26T22:18:00.334Z,33.13
2019-01-26T22:20:30.013Z,22.53
2019-01-26T22:22:59.624Z,32.43
2019-01-26T22:25:29.044Z,23.37
2019-01-26T22:27:58.809Z,23.00
2019-01-26T22:30:33.476Z,35.67
2019-01-26T22:33:02.977Z,23.90
2019-01-26T22:35:32.499Z,35.40
2019-01-26T22:38:01.926Z,29.03
2019-01-26T22:40:36.299Z,27.40
2019-01-26T22:43:06.337Z,49.83
2019-01-26T22:45:35.960Z,26.37
2019-01-26T22:48:05.566Z,26.33
2019-01-26T22:50:35.183Z,21.50
2019-01-26T22:53:05.269Z,29.37
2019-01-26T22:55:34.796Z,18.43
2019-01-26T22:58:04.322Z,34.47
2019-01-26T23:01:04.695Z,21.50
2019-01-26T23:04:13.952Z,29.83
2019-01-26T23:07:33.711Z,21.07
2019-01-26T23:10:52.499Z,69.70
2019-01-26T23:14:01.999Z,53.33
2019-01-26T23:17:10.986Z,32.60
2019-01-26T23:20:10.223Z,33.33
2019-01-26T23:23:31.472Z,24.93
2019-01-26T23:26:13.804Z,39.10
2019-01-26T23:29:28.379Z,27.50
2019-01-26T23:31:57.822Z,33.77
2019-01-26T23:34:27.325Z,40.40
2019-01-26T23:36:56.747Z,86.40
2019-01-26T23:39:26.174Z,35.37
2019-01-26T23:41:55.622Z,44.30
2019-01-26T23:44:25.052Z,47.40
2019-01-26T23:46:54.447Z,47.20
2019-01-26T23:49:23.893Z,82.37
2019-01-26T23:51:53.428Z,50.83
2019-01-26T23:54:23.122Z,40.70
2019-01-26T23:56:52.539Z,41.13
2019-01-26T23:59:22.146Z,30.80
